Blue, Texas
Current Conditions -  °F | °C
As of 4:55 AM on Sunday 23 Nov 2014 (Local Time) from KGYB Reporting Station
Overcast Overcast  
Wind Chill: 59°   Ceiling: 600
Heat Index: 59°   Visibility: 10mi
Dew Point: 58°   Wind: 5mph
Humidity: 97%   Direction: 240°WSW
Pressure: 29.7"   Gusts: NA
Location:  30.4292°N, 97.0703°W
Report Text: KGYB 231055Z AUTO 24004KT 10SM OVC006 15/15 A2970 RMK AO2 T01500145
Loading
Personal Weather Stations






























Interactive Weather Map New forecast layout! Learn more

10-Day Weather Forecast

Advertisements
Track Severe Weather on mobile